sensor_id;sensor_type;location;lat;lon;timestamp;pressure;altitude;pressure_sealevel;temperature;humidity
20612;BME280;10465;42.686;23.364;2023-05-10T00:00:20;95256.16;;;11.80;96.03
20612;BME280;10465;42.686;23.364;2023-05-10T00:02:47;95269.00;;;11.86;96.48
20612;BME280;10465;42.686;23.364;2023-05-10T00:05:13;95264.00;;;11.85;95.92
20612;BME280;10465;42.686;23.364;2023-05-10T00:07:39;95257.13;;;11.84;95.60
20612;BME280;10465;42.686;23.364;2023-05-10T00:10:04;95254.88;;;11.77;95.12
20612;BME280;10465;42.686;23.364;2023-05-10T00:12:30;95220.41;;;11.55;94.95
20612;BME280;10465;42.686;23.364;2023-05-10T00:14:55;95249.28;;;11.79;94.95
20612;BME280;10465;42.686;23.364;2023-05-10T00:17:21;95219.00;;;11.57;94.13
20612;BME280;10465;42.686;23.364;2023-05-10T00:19:46;95240.72;;;11.59;93.97
20612;BME280;10465;42.686;23.364;2023-05-10T00:22:12;95250.28;;;11.69;94.53
20612;BME280;10465;42.686;23.364;2023-05-10T00:24:37;95250.41;;;11.64;94.17
20612;BME280;10465;42.686;23.364;2023-05-10T00:27:03;95235.19;;;11.47;93.69
20612;BME280;10465;42.686;23.364;2023-05-10T00:29:29;95250.38;;;11.55;94.13
20612;BME280;10465;42.686;23.364;2023-05-10T00:31:54;95242.50;;;11.50;94.52
20612;BME280;10465;42.686;23.364;2023-05-10T00:34:20;95248.31;;;11.52;94.35
20612;BME280;10465;42.686;23.364;2023-05-10T00:36:45;95233.53;;;11.37;94.21
20612;BME280;10465;42.686;23.364;2023-05-10T00:39:11;95227.75;;;11.35;93.74
20612;BME280;10465;42.686;23.364;2023-05-10T00:41:37;95235.72;;;11.35;94.21
20612;BME280;10465;42.686;23.364;2023-05-10T00:44:03;95242.75;;;11.40;94.04
20612;BME280;10465;42.686;23.364;2023-05-10T00:46:29;95241.38;;;11.43;93.86
20612;BME280;10465;42.686;23.364;2023-05-10T00:48:55;95217.38;;;11.25;94.03
20612;BME280;10465;42.686;23.364;2023-05-10T00:51:21;95241.78;;;11.36;93.53
20612;BME280;10465;42.686;23.364;2023-05-10T00:53:46;95241.78;;;11.36;93.76
20612;BME280;10465;42.686;23.364;2023-05-10T00:56:13;95233.84;;;11.36;93.21
20612;BME280;10465;42.686;23.364;2023-05-10T00:58:39;95219.50;;;11.14;93.35
20612;BME280;10465;42.686;23.364;2023-05-10T01:01:05;95215.38;;;11.08;93.75
20612;BME280;10465;42.686;23.364;2023-05-10T01:03:31;95225.38;;;11.11;94.58
20612;BME280;10465;42.686;23.364;2023-05-10T01:05:57;95186.69;;;10.88;94.46
20612;BME280;10465;42.686;23.364;2023-05-10T01:08:23;95191.66;;;10.89;94.35
20612;BME280;10465;42.686;23.364;2023-05-10T01:10:49;95215.59;;;10.98;94.37
20612;BME280;10465;42.686;23.364;2023-05-10T01:13:28;95223.13;;;11.05;93.24
20612;BME280;10465;42.686;23.364;2023-05-10T01:15:56;95222.66;;;11.03;93.56
20612;BME280;10465;42.686;23.364;2023-05-10T01:18:22;95230.78;;;11.06;93.36
20612;BME280;10465;42.686;23.364;2023-05-10T01:20:54;95226.28;;;10.93;93.06
20612;BME280;10465;42.686;23.364;2023-05-10T01:26:31;95211.41;;;10.83;91.94
20612;BME280;10465;42.686;23.364;2023-05-10T01:37:15;95213.94;;;10.88;92.48
20612;BME280;10465;42.686;23.364;2023-05-10T01:39:47;95210.44;;;10.79;91.74
20612;BME280;10465;42.686;23.364;2023-05-10T01:42:17;95181.50;;;10.69;91.38
20612;BME280;10465;42.686;23.364;2023-05-10T01:44:58;95175.09;;;10.61;91.97
20612;BME280;10465;42.686;23.364;2023-05-10T01:47:40;95197.31;;;10.74;91.17
20612;BME280;10465;42.686;23.364;2023-05-10T01:50:15;95187.41;;;10.66;91.27
20612;BME280;10465;42.686;23.364;2023-05-10T01:52:42;95188.97;;;10.67;90.93
20612;BME280;10465;42.686;23.364;2023-05-10T01:55:15;95178.53;;;10.34;91.38
20612;BME280;10465;42.686;23.364;2023-05-10T01:57:44;95196.34;;;10.56;91.48
20612;BME280;10465;42.686;23.364;2023-05-10T02:00:12;95193.41;;;10.58;91.96
20612;BME280;10465;42.686;23.364;2023-05-10T02:02:46;95195.16;;;10.62;90.74
20612;BME280;10465;42.686;23.364;2023-05-10T02:05:13;95213.19;;;10.74;89.55
20612;BME280;10465;42.686;23.364;2023-05-10T02:07:40;95213.00;;;10.71;90.17
20612;BME280;10465;42.686;23.364;2023-05-10T02:10:07;95210.28;;;10.62;90.60
20612;BME280;10465;42.686;23.364;2023-05-10T02:12:53;95181.09;;;10.26;91.31
20612;BME280;10465;42.686;23.364;2023-05-10T02:15:23;95201.94;;;10.41;91.24
20612;BME280;10465;42.686;23.364;2023-05-10T02:17:50;95219.88;;;10.30;92.61
20612;BME280;10465;42.686;23.364;2023-05-10T02:20:18;95210.56;;;10.33;92.93
20612;BME280;10465;42.686;23.364;2023-05-10T02:22:45;95221.66;;;10.35;92.89
20612;BME280;10465;42.686;23.364;2023-05-10T02:25:13;95136.34;;;9.83;92.46
20612;BME280;10465;42.686;23.364;2023-05-10T02:27:41;95219.97;;;10.39;92.45
20612;BME280;10465;42.686;23.364;2023-05-10T02:30:07;95207.06;;;10.37;92.29
20612;BME280;10465;42.686;23.364;2023-05-10T02:32:33;95227.91;;;10.39;89.88
20612;BME280;10465;42.686;23.364;2023-05-10T02:35:01;95186.69;;;9.91;90.38
20612;BME280;10465;42.686;23.364;2023-05-10T02:37:28;95226.19;;;10.02;90.34
20612;BME280;10465;42.686;23.364;2023-05-10T02:39:55;95219.41;;;9.96;89.90
20612;BME280;10465;42.686;23.364;2023-05-10T02:42:25;95223.97;;;10.09;85.88
20612;BME280;10465;42.686;23.364;2023-05-10T02:44:55;95221.31;;;10.09;83.76
20612;BME280;10465;42.686;23.364;2023-05-10T02:47:22;95207.69;;;10.15;81.33
20612;BME280;10465;42.686;23.364;2023-05-10T02:49:47;95187.69;;;9.96;80.55
20612;BME280;10465;42.686;23.364;2023-05-10T02:52:16;95214.16;;;10.09;80.10
20612;BME280;10465;42.686;23.364;2023-05-10T02:54:46;95182.19;;;9.78;81.38
20612;BME280;10465;42.686;23.364;2023-05-10T02:57:16;95202.66;;;10.00;81.46
20612;BME280;10465;42.686;23.364;2023-05-10T02:59:44;95216.03;;;10.09;82.17
20612;BME280;10465;42.686;23.364;2023-05-10T03:02:12;95161.72;;;9.84;82.82
20612;BME280;10465;42.686;23.364;2023-05-10T03:04:38;95214.13;;;9.82;81.41
20612;BME280;10465;42.686;23.364;2023-05-10T03:07:04;95228.53;;;9.24;82.92
20612;BME280;10465;42.686;23.364;2023-05-10T03:09:31;95197.25;;;9.12;83.56
20612;BME280;10465;42.686;23.364;2023-05-10T03:12:07;95182.84;;;9.24;83.32
20612;BME280;10465;42.686;23.364;2023-05-10T03:17:55;95218.13;;;9.79;83.17
20612;BME280;10465;42.686;23.364;2023-05-10T03:20:33;95232.31;;;9.83;83.07
20612;BME280;10465;42.686;23.364;2023-05-10T03:23:07;95231.97;;;9.90;82.17
20612;BME280;10465;42.686;23.364;2023-05-10T03:25:37;95228.81;;;9.88;80.56
20612;BME280;10465;42.686;23.364;2023-05-10T03:28:04;95215.97;;;9.81;79.30
20612;BME280;10465;42.686;23.364;2023-05-10T03:30:30;95217.84;;;9.95;79.23
20612;BME280;10465;42.686;23.364;2023-05-10T03:32:56;95235.06;;;9.92;78.61
20612;BME280;10465;42.686;23.364;2023-05-10T03:35:23;95212.03;;;9.79;78.89
20612;BME280;10465;42.686;23.364;2023-05-10T03:37:48;95237.47;;;10.07;79.31
20612;BME280;10465;42.686;23.364;2023-05-10T03:40:14;95235.59;;;10.08;78.70
20612;BME280;10465;42.686;23.364;2023-05-10T03:42:40;95232.69;;;10.09;79.24
20612;BME280;10465;42.686;23.364;2023-05-10T03:45:06;95202.88;;;9.90;77.82
20612;BME280;10465;42.686;23.364;2023-05-10T03:47:32;95233.75;;;10.08;77.47
20612;BME280;10465;42.686;23.364;2023-05-10T03:49:59;95224.44;;;9.97;77.89
20612;BME280;10465;42.686;23.364;2023-05-10T03:52:24;95215.78;;;9.91;80.98
20612;BME280;10465;42.686;23.364;2023-05-10T03:54:50;95241.97;;;10.07;77.95
20612;BME280;10465;42.686;23.364;2023-05-10T03:57:16;95232.94;;;10.08;77.66
20612;BME280;10465;42.686;23.364;2023-05-10T03:59:41;95245.31;;;10.12;76.85
20612;BME280;10465;42.686;23.364;2023-05-10T04:02:07;95251.47;;;10.08;77.94
20612;BME280;10465;42.686;23.364;2023-05-10T04:04:32;95250.41;;;10.09;78.34
20612;BME280;10465;42.686;23.364;2023-05-10T04:06:58;95250.78;;;10.02;78.23
20612;BME280;10465;42.686;23.364;2023-05-10T04:09:23;95235.47;;;9.85;78.61
20612;BME280;10465;42.686;23.364;2023-05-10T04:11:49;95230.06;;;9.77;78.75
20612;BME280;10465;42.686;23.364;2023-05-10T04:14:14;95250.28;;;10.00;78.89
20612;BME280;10465;42.686;23.364;2023-05-10T04:16:40;95257.84;;;10.07;78.37
20612;BME280;10465;42.686;23.364;2023-05-10T04:19:05;95232.06;;;9.99;78.79
20612;BME280;10465;42.686;23.364;2023-05-10T04:21:31;95258.06;;;10.10;78.66
20612;BME280;10465;42.686;23.364;2023-05-10T04:23:56;95193.84;;;9.77;78.25
20612;BME280;10465;42.686;23.364;2023-05-10T04:26:22;95238.19;;;10.13;79.22
20612;BME280;10465;42.686;23.364;2023-05-10T04:28:47;95228.53;;;10.03;78.91
20612;BME280;10465;42.686;23.364;2023-05-10T04:31:12;95211.69;;;9.85;78.30
20612;BME280;10465;42.686;23.364;2023-05-10T04:33:38;95199.53;;;9.84;77.22
20612;BME280;10465;42.686;23.364;2023-05-10T04:36:04;95242.97;;;10.11;77.41
20612;BME280;10465;42.686;23.364;2023-05-10T04:38:29;95263.34;;;10.10;77.98
20612;BME280;10465;42.686;23.364;2023-05-10T04:41:04;95255.19;;;10.07;77.57
20612;BME280;10465;42.686;23.364;2023-05-10T04:43:30;95220.88;;;9.88;77.76
20612;BME280;10465;42.686;23.364;2023-05-10T04:45:59;95236.22;;;10.05;77.63
20612;BME280;10465;42.686;23.364;2023-05-10T04:48:24;95266.41;;;10.18;77.34
20612;BME280;10465;42.686;23.364;2023-05-10T04:50:51;95214.13;;;9.96;77.10
20612;BME280;10465;42.686;23.364;2023-05-10T04:53:16;95223.25;;;10.03;77.37
20612;BME280;10465;42.686;23.364;2023-05-10T04:55:42;95256.22;;;10.25;77.55
20612;BME280;10465;42.686;23.364;2023-05-10T04:58:07;95251.91;;;10.29;77.37
20612;BME280;10465;42.686;23.364;2023-05-10T05:00:33;95258.50;;;10.31;77.67
20612;BME280;10465;42.686;23.364;2023-05-10T05:02:58;95240.72;;;10.18;77.16
20612;BME280;10465;42.686;23.364;2023-05-10T05:05:24;95248.56;;;10.23;77.30
20612;BME280;10465;42.686;23.364;2023-05-10T05:07:49;95244.94;;;10.19;77.53
20612;BME280;10465;42.686;23.364;2023-05-10T05:10:15;95264.56;;;10.32;76.98
20612;BME280;10465;42.686;23.364;2023-05-10T05:12:41;95270.16;;;10.30;77.36
20612;BME280;10465;42.686;23.364;2023-05-10T05:15:07;95267.41;;;10.35;77.15
20612;BME280;10465;42.686;23.364;2023-05-10T05:17:34;95270.44;;;10.29;77.56
20612;BME280;10465;42.686;23.364;2023-05-10T05:20:00;95256.50;;;10.23;77.92
20612;BME280;10465;42.686;23.364;2023-05-10T05:22:25;95242.78;;;10.21;77.99
20612;BME280;10465;42.686;23.364;2023-05-10T05:24:54;95264.41;;;10.42;78.38
20612;BME280;10465;42.686;23.364;2023-05-10T05:27:20;95215.22;;;10.08;78.14
20612;BME280;10465;42.686;23.364;2023-05-10T05:29:56;95276.75;;;10.47;78.06
20612;BME280;10465;42.686;23.364;2023-05-10T05:32:22;95274.00;;;10.52;77.73
20612;BME280;10465;42.686;23.364;2023-05-10T05:34:48;95279.38;;;10.60;78.10
20612;BME280;10465;42.686;23.364;2023-05-10T05:37:18;95267.91;;;10.51;78.68
20612;BME280;10465;42.686;23.364;2023-05-10T05:39:44;95250.19;;;10.38;78.27
20612;BME280;10465;42.686;23.364;2023-05-10T05:42:10;95248.50;;;10.28;77.63
20612;BME280;10465;42.686;23.364;2023-05-10T05:44:35;95277.41;;;10.38;77.65
20612;BME280;10465;42.686;23.364;2023-05-10T05:47:01;95200.13;;;9.95;78.69
20612;BME280;10465;42.686;23.364;2023-05-10T05:49:27;95277.69;;;10.37;78.60
20612;BME280;10465;42.686;23.364;2023-05-10T05:51:53;95282.91;;;10.42;79.63
20612;BME280;10465;42.686;23.364;2023-05-10T05:54:19;95283.00;;;10.37;79.42
20612;BME280;10465;42.686;23.364;2023-05-10T05:56:44;95284.06;;;10.36;79.18
20612;BME280;10465;42.686;23.364;2023-05-10T05:59:10;95291.44;;;10.39;79.39
20612;BME280;10465;42.686;23.364;2023-05-10T06:01:36;95282.84;;;10.14;80.80
20612;BME280;10465;42.686;23.364;2023-05-10T06:04:01;95254.34;;;9.79;80.60
20612;BME280;10465;42.686;23.364;2023-05-10T06:06:27;95240.44;;;9.73;81.36
20612;BME280;10465;42.686;23.364;2023-05-10T06:08:53;95288.53;;;10.22;81.05
20612;BME280;10465;42.686;23.364;2023-05-10T06:11:18;95269.03;;;10.18;79.96
20612;BME280;10465;42.686;23.364;2023-05-10T06:13:44;95275.56;;;10.25;79.24
20612;BME280;10465;42.686;23.364;2023-05-10T06:16:09;95291.75;;;10.37;78.56
20612;BME280;10465;42.686;23.364;2023-05-10T06:18:35;95295.75;;;10.35;78.45
20612;BME280;10465;42.686;23.364;2023-05-10T06:21:01;95282.63;;;10.30;78.62
20612;BME280;10465;42.686;23.364;2023-05-10T06:23:26;95296.03;;;10.33;79.70
20612;BME280;10465;42.686;23.364;2023-05-10T06:25:52;95228.94;;;9.97;79.18
20612;BME280;10465;42.686;23.364;2023-05-10T06:28:18;95299.47;;;10.34;78.86
20612;BME280;10465;42.686;23.364;2023-05-10T06:30:43;95306.13;;;10.31;79.09
20612;BME280;10465;42.686;23.364;2023-05-10T06:33:09;95304.56;;;10.44;78.75
20612;BME280;10465;42.686;23.364;2023-05-10T06:35:35;95254.44;;;10.20;78.30
20612;BME280;10465;42.686;23.364;2023-05-10T06:38:01;95299.38;;;10.53;78.05
20612;BME280;10465;42.686;23.364;2023-05-10T06:40:27;95250.94;;;10.25;78.54
20612;BME280;10465;42.686;23.364;2023-05-10T06:42:52;95307.81;;;10.55;78.31
20612;BME280;10465;42.686;23.364;2023-05-10T06:45:18;95305.25;;;10.36;78.81
20612;BME280;10465;42.686;23.364;2023-05-10T06:47:43;95304.66;;;10.39;77.39
20612;BME280;10465;42.686;23.364;2023-05-10T06:50:09;95307.53;;;10.43;77.74
20612;BME280;10465;42.686;23.364;2023-05-10T06:52:37;95304.66;;;10.39;78.09
20612;BME280;10465;42.686;23.364;2023-05-10T06:55:06;95303.50;;;10.45;76.30
20612;BME280;10465;42.686;23.364;2023-05-10T06:57:32;95306.63;;;10.47;77.46
20612;BME280;10465;42.686;23.364;2023-05-10T06:59:58;95304.41;;;10.54;76.87
20612;BME280;10465;42.686;23.364;2023-05-10T07:02:24;95284.88;;;10.50;77.71
20612;BME280;10465;42.686;23.364;2023-05-10T07:04:49;95288.31;;;10.51;76.79
20612;BME280;10465;42.686;23.364;2023-05-10T07:07:17;95311.75;;;10.71;75.58
20612;BME280;10465;42.686;23.364;2023-05-10T07:09:42;95267.63;;;10.39;75.17
20612;BME280;10465;42.686;23.364;2023-05-10T07:12:07;95316.47;;;10.74;75.29
20612;BME280;10465;42.686;23.364;2023-05-10T07:14:33;95289.59;;;10.67;75.22
20612;BME280;10465;42.686;23.364;2023-05-10T07:16:58;95308.63;;;10.83;73.94
20612;BME280;10465;42.686;23.364;2023-05-10T07:19:24;95315.56;;;10.51;74.58
20612;BME280;10465;42.686;23.364;2023-05-10T07:21:49;95292.41;;;10.57;74.26
20612;BME280;10465;42.686;23.364;2023-05-10T07:24:16;95313.41;;;10.81;74.04
20612;BME280;10465;42.686;23.364;2023-05-10T07:26:41;95318.50;;;10.77;74.23
20612;BME280;10465;42.686;23.364;2023-05-10T07:29:06;95316.44;;;10.88;74.20
20612;BME280;10465;42.686;23.364;2023-05-10T07:31:32;95322.44;;;10.94;74.22
20612;BME280;10465;42.686;23.364;2023-05-10T07:33:57;95323.72;;;10.96;73.48
20612;BME280;10465;42.686;23.364;2023-05-10T07:36:23;95327.34;;;11.00;73.80
20612;BME280;10465;42.686;23.364;2023-05-10T07:38:48;95327.72;;;10.80;72.95
20612;BME280;10465;42.686;23.364;2023-05-10T07:41:14;95325.88;;;10.80;73.54
20612;BME280;10465;42.686;23.364;2023-05-10T07:43:40;95323.13;;;10.85;73.45
20612;BME280;10465;42.686;23.364;2023-05-10T07:46:05;95329.88;;;10.64;73.08
20612;BME280;10465;42.686;23.364;2023-05-10T07:48:31;95329.38;;;10.48;73.87
20612;BME280;10465;42.686;23.364;2023-05-10T07:50:56;95333.53;;;10.22;75.39
20612;BME280;10465;42.686;23.364;2023-05-10T07:53:22;95286.25;;;9.69;76.35
20612;BME280;10465;42.686;23.364;2023-05-10T07:55:51;95292.63;;;9.49;77.04
20612;BME280;10465;42.686;23.364;2023-05-10T07:58:17;95324.69;;;9.61;78.72
20612;BME280;10465;42.686;23.364;2023-05-10T08:00:42;95338.47;;;9.77;78.17
20612;BME280;10465;42.686;23.364;2023-05-10T08:03:07;95301.13;;;9.46;78.75
20612;BME280;10465;42.686;23.364;2023-05-10T08:05:33;95289.59;;;9.55;76.47
20612;BME280;10465;42.686;23.364;2023-05-10T08:07:59;95308.84;;;9.61;76.68
20612;BME280;10465;42.686;23.364;2023-05-10T08:10:24;95335.75;;;9.63;78.15
20612;BME280;10465;42.686;23.364;2023-05-10T08:12:50;95336.28;;;9.98;77.14
20612;BME280;10465;42.686;23.364;2023-05-10T08:15:16;95321.84;;;10.09;76.79
20612;BME280;10465;42.686;23.364;2023-05-10T08:17:41;95343.16;;;9.99;77.64
20612;BME280;10465;42.686;23.364;2023-05-10T08:20:08;95337.03;;;9.65;78.84
20612;BME280;10465;42.686;23.364;2023-05-10T08:22:34;95340.25;;;9.62;79.84
20612;BME280;10465;42.686;23.364;2023-05-10T08:24:59;95322.56;;;9.96;78.34
20612;BME280;10465;42.686;23.364;2023-05-10T08:27:24;95306.47;;;9.92;79.16
20612;BME280;10465;42.686;23.364;2023-05-10T08:29:50;95285.81;;;9.80;77.34
20612;BME280;10465;42.686;23.364;2023-05-10T08:32:15;95340.88;;;10.25;78.23
20612;BME280;10465;42.686;23.364;2023-05-10T08:34:41;95308.28;;;9.97;77.94
20612;BME280;10465;42.686;23.364;2023-05-10T08:37:06;95314.56;;;10.01;78.71
20612;BME280;10465;42.686;23.364;2023-05-10T08:39:35;95320.25;;;10.08;78.78
20612;BME280;10465;42.686;23.364;2023-05-10T08:42:03;95333.22;;;10.23;78.90
20612;BME280;10465;42.686;23.364;2023-05-10T08:44:31;95305.53;;;10.34;80.17
20612;BME280;10465;42.686;23.364;2023-05-10T08:46:59;95324.50;;;10.55;79.29
20612;BME280;10465;42.686;23.364;2023-05-10T08:49:27;95348.63;;;10.54;78.99
20612;BME280;10465;42.686;23.364;2023-05-10T08:51:54;95347.09;;;10.34;78.47
20612;BME280;10465;42.686;23.364;2023-05-10T08:54:21;95310.38;;;10.13;79.88
20612;BME280;10465;42.686;23.364;2023-05-10T08:56:47;95308.13;;;9.88;80.14
20612;BME280;10465;42.686;23.364;2023-05-10T08:59:12;95345.03;;;10.31;80.51
20612;BME280;10465;42.686;23.364;2023-05-10T09:01:39;95352.31;;;10.39;80.41
20612;BME280;10465;42.686;23.364;2023-05-10T09:04:05;95349.25;;;10.32;79.57
20612;BME280;10465;42.686;23.364;2023-05-10T09:06:31;95344.06;;;10.40;80.66
20612;BME280;10465;42.686;23.364;2023-05-10T09:08:57;95312.63;;;10.20;78.94
20612;BME280;10465;42.686;23.364;2023-05-10T09:11:23;95316.34;;;10.19;78.95
20612;BME280;10465;42.686;23.364;2023-05-10T09:13:50;95281.91;;;9.91;79.31
20612;BME280;10465;42.686;23.364;2023-05-10T09:16:17;95342.88;;;10.33;78.24
20612;BME280;10465;42.686;23.364;2023-05-10T09:18:42;95336.06;;;10.46;79.52
20612;BME280;10465;42.686;23.364;2023-05-10T09:21:09;95314.47;;;10.38;79.29
20612;BME280;10465;42.686;23.364;2023-05-10T09:23:35;95301.81;;;10.35;79.47
20612;BME280;10465;42.686;23.364;2023-05-10T09:26:06;95321.25;;;10.72;79.89
20612;BME280;10465;42.686;23.364;2023-05-10T09:28:53;95324.28;;;10.93;80.02
20612;BME280;10465;42.686;23.364;2023-05-10T09:31:19;95298.63;;;10.66;79.41
20612;BME280;10465;42.686;23.364;2023-05-10T09:33:46;95305.00;;;10.79;78.98
20612;BME280;10465;42.686;23.364;2023-05-10T09:36:12;95305.28;;;10.91;77.35
20612;BME280;10465;42.686;23.364;2023-05-10T09:38:45;95322.31;;;11.12;76.72
20612;BME280;10465;42.686;23.364;2023-05-10T09:41:19;95286.94;;;10.95;75.57
20612;BME280;10465;42.686;23.364;2023-05-10T09:43:46;95328.19;;;11.09;75.02
20612;BME280;10465;42.686;23.364;2023-05-10T09:46:11;95258.78;;;10.71;75.74
20612;BME280;10465;42.686;23.364;2023-05-10T09:48:44;95291.53;;;10.89;76.39
20612;BME280;10465;42.686;23.364;2023-05-10T09:51:10;95321.25;;;11.00;76.18
20612;BME280;10465;42.686;23.364;2023-05-10T09:53:35;95290.28;;;10.86;76.75
20612;BME280;10465;42.686;23.364;2023-05-10T09:56:01;95246.34;;;10.72;74.89
20612;BME280;10465;42.686;23.364;2023-05-10T09:58:26;95322.22;;;11.04;75.15
20612;BME280;10465;42.686;23.364;2023-05-10T10:00:53;95316.53;;;10.97;75.35
20612;BME280;10465;42.686;23.364;2023-05-10T10:03:22;95279.19;;;10.84;75.02
20612;BME280;10465;42.686;23.364;2023-05-10T10:05:48;95292.78;;;11.05;75.04
20612;BME280;10465;42.686;23.364;2023-05-10T10:08:15;95248.50;;;10.70;74.83
20612;BME280;10465;42.686;23.364;2023-05-10T10:10:41;95299.94;;;11.05;75.80
20612;BME280;10465;42.686;23.364;2023-05-10T10:13:07;95222.81;;;10.56;73.82
20612;BME280;10465;42.686;23.364;2023-05-10T10:15:34;95297.44;;;10.86;76.16
20612;BME280;10465;42.686;23.364;2023-05-10T10:18:00;95296.22;;;11.06;76.50
20612;BME280;10465;42.686;23.364;2023-05-10T10:20:27;95294.78;;;10.86;75.82
20612;BME280;10465;42.686;23.364;2023-05-10T10:22:52;95237.94;;;10.42;76.33
20612;BME280;10465;42.686;23.364;2023-05-10T10:25:19;95251.34;;;10.46;76.59
20612;BME280;10465;42.686;23.364;2023-05-10T10:33:36;95295.25;;;10.88;75.61
20612;BME280;10465;42.686;23.364;2023-05-10T10:36:04;95284.56;;;11.07;76.47
20612;BME280;10465;42.686;23.364;2023-05-10T10:39:00;95298.84;;;11.20;75.08
20612;BME280;10465;42.686;23.364;2023-05-10T10:41:36;95304.44;;;11.32;74.72
20612;BME280;10465;42.686;23.364;2023-05-10T10:47:10;95294.97;;;11.03;74.58
20612;BME280;10465;42.686;23.364;2023-05-10T10:50:07;95290.91;;;11.06;74.81
20612;BME280;10465;42.686;23.364;2023-05-10T10:52:38;95296.22;;;11.20;75.16
20612;BME280;10465;42.686;23.364;2023-05-10T10:55:11;95293.25;;;11.35;74.82
20612;BME280;10465;42.686;23.364;2023-05-10T11:00:19;95301.91;;;11.27;75.96
20612;BME280;10465;42.686;23.364;2023-05-10T11:05:47;95297.38;;;11.13;75.85
20612;BME280;10465;42.686;23.364;2023-05-10T11:08:31;95265.31;;;11.15;76.77
20612;BME280;10465;42.686;23.364;2023-05-10T11:13:45;95301.63;;;11.14;76.62
20612;BME280;10465;42.686;23.364;2023-05-10T11:19:14;95239.34;;;11.03;76.82
20612;BME280;10465;42.686;23.364;2023-05-10T11:24:31;95299.84;;;11.46;76.93
20612;BME280;10465;42.686;23.364;2023-05-10T11:26:56;95265.25;;;11.29;76.66
20612;BME280;10465;42.686;23.364;2023-05-10T11:29:22;95297.72;;;11.71;77.16
20612;BME280;10465;42.686;23.364;2023-05-10T11:31:48;95298.41;;;11.76;75.64
20612;BME280;10465;42.686;23.364;2023-05-10T11:36:51;95299.78;;;11.51;76.21
20612;BME280;10465;42.686;23.364;2023-05-10T11:39:19;95295.81;;;11.26;77.46
20612;BME280;10465;42.686;23.364;2023-05-10T11:41:47;95295.84;;;11.49;76.89
20612;BME280;10465;42.686;23.364;2023-05-10T11:44:13;95298.81;;;11.70;76.64
20612;BME280;10465;42.686;23.364;2023-05-10T11:46:38;95250.84;;;11.21;74.65
20612;BME280;10465;42.686;23.364;2023-05-10T11:49:04;95266.16;;;11.24;75.28
20612;BME280;10465;42.686;23.364;2023-05-10T11:51:35;95295.56;;;11.36;75.78
20612;BME280;10465;42.686;23.364;2023-05-10T11:54:06;95289.44;;;11.50;75.90
20612;BME280;10465;42.686;23.364;2023-05-10T11:56:32;95302.09;;;11.30;75.79
20612;BME280;10465;42.686;23.364;2023-05-10T11:58:58;95285.28;;;11.35;77.49
20612;BME280;10465;42.686;23.364;2023-05-10T12:01:25;95298.41;;;11.40;76.26
20612;BME280;10465;42.686;23.364;2023-05-10T12:03:52;95294.50;;;11.37;75.86
20612;BME280;10465;42.686;23.364;2023-05-10T12:06:20;95292.47;;;11.21;77.85
20612;BME280;10465;42.686;23.364;2023-05-10T12:08:47;95287.88;;;11.12;77.83
20612;BME280;10465;42.686;23.364;2023-05-10T12:11:13;95268.94;;;11.19;78.79
20612;BME280;10465;42.686;23.364;2023-05-10T12:13:43;95256.16;;;11.21;77.93
20612;BME280;10465;42.686;23.364;2023-05-10T12:16:25;95285.75;;;11.37;77.97
20612;BME280;10465;42.686;23.364;2023-05-10T12:18:52;95232.56;;;10.97;77.68
20612;BME280;10465;42.686;23.364;2023-05-10T12:21:19;95245.00;;;11.10;77.91
20612;BME280;10465;42.686;23.364;2023-05-10T12:23:52;95275.66;;;11.39;78.23
20612;BME280;10465;42.686;23.364;2023-05-10T12:26:18;95252.25;;;11.19;77.70
20612;BME280;10465;42.686;23.364;2023-05-10T12:28:46;95283.00;;;11.42;76.68
20612;BME280;10465;42.686;23.364;2023-05-10T12:31:12;95278.94;;;11.22;77.40
20612;BME280;10465;42.686;23.364;2023-05-10T12:36:15;95257.03;;;11.30;78.83
20612;BME280;10465;42.686;23.364;2023-05-10T12:38:45;95239.91;;;11.36;77.05
20612;BME280;10465;42.686;23.364;2023-05-10T12:41:15;95181.94;;;10.99;77.39
20612;BME280;10465;42.686;23.364;2023-05-10T12:43:41;95265.50;;;11.55;76.66
20612;BME280;10465;42.686;23.364;2023-05-10T12:46:12;95246.72;;;11.29;76.91
20612;BME280;10465;42.686;23.364;2023-05-10T12:48:40;95259.22;;;11.51;76.58
20612;BME280;10465;42.686;23.364;2023-05-10T12:51:06;95242.97;;;11.30;76.98
20612;BME280;10465;42.686;23.364;2023-05-10T12:53:37;95271.28;;;11.21;77.53
20612;BME280;10465;42.686;23.364;2023-05-10T12:56:03;95253.41;;;11.26;77.50
20612;BME280;10465;42.686;23.364;2023-05-10T12:58:29;95219.56;;;11.09;77.19
20612;BME280;10465;42.686;23.364;2023-05-10T13:00:55;95215.50;;;11.03;77.29
20612;BME280;10465;42.686;23.364;2023-05-10T13:03:22;95247.81;;;11.50;77.80
20612;BME280;10465;42.686;23.364;2023-05-10T13:05:47;95242.84;;;11.71;77.03
20612;BME280;10465;42.686;23.364;2023-05-10T13:08:13;95245.94;;;11.87;75.83
20612;BME280;10465;42.686;23.364;2023-05-10T13:10:38;95235.03;;;11.75;75.97
20612;BME280;10465;42.686;23.364;2023-05-10T13:13:04;95183.78;;;11.34;75.53
20612;BME280;10465;42.686;23.364;2023-05-10T13:15:30;95247.59;;;11.60;76.41
20612;BME280;10465;42.686;23.364;2023-05-10T13:17:55;95234.16;;;11.79;76.72
20612;BME280;10465;42.686;23.364;2023-05-10T13:20:21;95211.06;;;11.57;75.46
20612;BME280;10465;42.686;23.364;2023-05-10T13:22:46;95218.38;;;11.52;76.26
20612;BME280;10465;42.686;23.364;2023-05-10T13:25:12;95231.03;;;11.55;76.37
20612;BME280;10465;42.686;23.364;2023-05-10T13:27:41;95235.19;;;11.47;76.46
20612;BME280;10465;42.686;23.364;2023-05-10T13:30:10;95213.72;;;11.35;76.96
20612;BME280;10465;42.686;23.364;2023-05-10T13:32:36;95198.78;;;11.39;77.04
20612;BME280;10465;42.686;23.364;2023-05-10T13:35:02;95193.00;;;11.37;77.46